Time;durP1;ratioP1;P1;durP2;ratioP2;P2;SDS_P1;SDS_P2;PMS_P1;PMS_P2;Temp;Humidity;BMP_temperature;BMP_pressure;BME280_temperature;BME280_humidity;BME280_pressure;Samples;Min_cycle;Max_cycle;Signal;HPM_P1;HPM_P2
2022/07/29 00:01:59;;;;;;;8.80;6.10;;;;;;;21.60;100.00;100357.40;1743078;82;21003;-61
2022/07/29 00:04:26;;;;;;;8.57;5.90;;;;;;;21.56;100.00;100362.41;1732286;81;20986;-57
2022/07/29 00:06:55;;;;;;;9.47;6.13;;;;;;;21.54;100.00;100364.50;1724520;83;21059;-58
2022/07/29 00:09:22;;;;;;;7.87;5.63;;;;;;;21.51;100.00;100364.20;1725110;83;21451;-57
2022/07/29 00:11:50;;;;;;;9.80;6.23;;;;;;;21.47;100.00;100361.78;1725107;83;21958;-58
2022/07/29 00:14:17;;;;;;;7.93;5.60;;;;;;;21.41;100.00;100362.28;1725454;83;21556;-58
2022/07/29 00:16:45;;;;;;;7.47;5.70;;;;;;;21.42;100.00;100358.57;1725129;83;20986;-67
2022/07/29 00:19:12;;;;;;;8.67;5.40;;;;;;;21.39;100.00;100363.05;1724808;83;21911;-59
2022/07/29 00:21:39;;;;;;;6.77;5.53;;;;;;;21.41;100.00;100366.79;1725436;83;21128;-57
2022/07/29 00:24:07;;;;;;;7.53;5.93;;;;;;;21.42;100.00;100365.73;1725357;83;21229;-57
2022/07/29 00:26:34;;;;;;;5.73;5.07;;;;;;;21.40;100.00;100367.29;1723410;83;21069;-61
2022/07/29 00:29:03;;;;;;;7.57;5.77;;;;;;;21.41;100.00;100364.14;1724315;83;21267;-59
2022/07/29 00:31:30;;;;;;;7.57;5.47;;;;;;;21.43;100.00;100367.32;1724962;83;21015;-57
2022/07/29 00:33:57;;;;;;;7.50;5.63;;;;;;;21.31;100.00;100365.59;1724678;83;21820;-57
2022/07/29 00:36:24;;;;;;;7.87;5.97;;;;;;;21.29;100.00;100362.91;1723577;83;21145;-67
2022/07/29 00:38:53;;;;;;;6.27;5.27;;;;;;;21.20;100.00;100367.08;1725281;83;21073;-58
2022/07/29 00:41:21;;;;;;;10.07;5.00;;;;;;;21.16;100.00;100365.98;1724837;83;20987;-62
2022/07/29 00:43:48;;;;;;;7.57;5.30;;;;;;;21.14;100.00;100368.90;1724269;83;20978;-58
2022/07/29 00:46:16;;;;;;;6.53;5.37;;;;;;;21.05;100.00;100369.84;1724492;83;21822;-57
2022/07/29 00:48:43;;;;;;;8.47;5.50;;;;;;;21.09;100.00;100369.63;1724443;83;21551;-56
2022/07/29 00:51:12;;;;;;;8.37;5.20;;;;;;;21.07;100.00;100366.97;1724994;83;22033;-66
2022/07/29 00:53:38;;;;;;;6.87;5.43;;;;;;;21.06;100.00;100366.17;1724739;83;21035;-56
2022/07/29 00:56:06;;;;;;;8.00;5.70;;;;;;;21.04;100.00;100372.77;1725279;83;21461;-58
2022/07/29 00:58:33;;;;;;;6.30;4.90;;;;;;;20.97;100.00;100366.85;1724715;83;21026;-57
2022/07/29 01:01:00;;;;;;;8.90;5.87;;;;;;;20.96;100.00;100374.53;1724426;83;21096;-57
2022/07/29 01:03:28;;;;;;;7.23;5.17;;;;;;;20.92;100.00;100370.78;1726242;81;21626;-57
2022/07/29 01:05:55;;;;;;;8.00;5.27;;;;;;;20.87;100.00;100372.83;1743258;82;20955;-57
2022/07/29 01:08:24;;;;;;;6.70;5.03;;;;;;;20.83;100.00;100381.79;1743260;82;21046;-57
2022/07/29 01:10:52;;;;;;;7.40;4.63;;;;;;;20.84;100.00;100378.12;1742681;82;21090;-64
2022/07/29 01:13:20;;;;;;;8.53;5.17;;;;;;;20.77;100.00;100380.15;1742326;82;21153;-56
2022/07/29 01:15:53;;;;;;;7.07;4.93;;;;;;;20.77;100.00;100374.85;1743398;82;20979;-56
2022/07/29 01:18:26;;;;;;;8.07;4.70;;;;;;;20.77;100.00;100379.36;1742185;82;21023;-58
2022/07/29 01:21:29;;;;;;;6.80;4.73;;;;;;;20.73;100.00;100382.22;1742591;82;21037;-65
2022/07/29 01:24:24;;;;;;;6.73;4.80;;;;;;;20.67;100.00;100382.67;1742139;82;21071;-57
2022/07/29 01:26:59;;;;;;;6.60;4.70;;;;;;;20.68;100.00;100371.55;1723818;82;21230;-58
2022/07/29 01:29:32;;;;;;;4.83;4.30;;;;;;;20.63;100.00;100368.32;1742114;82;21082;-59
2022/07/29 01:32:15;;;;;;;6.23;4.53;;;;;;;20.54;100.00;100371.93;1742186;82;21109;-59
2022/07/29 01:35:14;;;;;;;6.53;4.50;;;;;;;20.46;100.00;100376.30;1742608;82;21074;-57
2022/07/29 01:37:52;;;;;;;4.63;3.93;;;;;;;20.50;100.00;100376.64;1742364;82;21059;-59
2022/07/29 01:40:36;;;;;;;6.03;4.63;;;;;;;20.48;100.00;100376.05;1717634;82;21130;-58
2022/07/29 01:43:08;;;;;;;5.13;4.40;;;;;;;20.35;100.00;100381.98;1742445;82;21051;-68
2022/07/29 01:45:42;;;;;;;6.63;4.40;;;;;;;20.37;100.00;100377.23;1742509;82;21497;-58
2022/07/29 01:48:29;;;;;;;6.27;4.50;;;;;;;20.43;100.00;100381.28;1742658;82;20936;-67
2022/07/29 01:51:10;;;;;;;7.67;4.67;;;;;;;20.29;100.00;100384.80;1742430;82;20959;-58
2022/07/29 01:53:51;;;;;;;5.40;4.40;;;;;;;20.39;100.00;100387.06;1742431;82;21138;-67
2022/07/29 01:56:20;;;;;;;6.60;4.07;;;;;;;20.30;100.00;100389.83;1742726;82;21010;-59
2022/07/29 01:58:48;;;;;;;6.03;4.13;;;;;;;20.25;100.00;100384.48;1742637;82;21050;-60
2022/07/29 02:01:15;;;;;;;8.50;4.27;;;;;;;20.30;100.00;100384.54;1742790;82;20971;-59
2022/07/29 02:03:44;;;;;;;6.10;3.90;;;;;;;20.37;100.00;100383.05;1742421;81;20998;-60
2022/07/29 02:06:11;;;;;;;6.07;3.67;;;;;;;20.33;100.00;100384.05;1750096;81;21249;-58
2022/07/29 02:08:40;;;;;;;4.93;4.00;;;;;;;20.26;100.00;100384.75;1719808;81;20867;-59
2022/07/29 02:11:07;;;;;;;5.10;3.93;;;;;;;20.24;100.00;100386.06;1748952;81;21296;-67
2022/07/29 02:13:36;;;;;;;6.97;4.17;;;;;;;20.34;100.00;100388.83;1749006;81;20942;-58
2022/07/29 02:16:05;;;;;;;5.70;4.10;;;;;;;20.44;100.00;100388.97;1749798;81;21436;-58
2022/07/29 02:18:33;;;;;;;8.47;4.43;;;;;;;20.50;100.00;100390.68;1748992;81;21149;-60
2022/07/29 02:21:00;;;;;;;7.53;4.93;;;;;;;20.53;100.00;100388.88;1749213;81;20930;-59
2022/07/29 02:23:27;;;;;;;7.73;4.10;;;;;;;20.64;100.00;100389.78;1748816;81;20978;-59
2022/07/29 02:25:57;;;;;;;5.53;3.67;;;;;;;20.68;100.00;100380.81;1750047;81;21066;-59
2022/07/29 02:28:27;;;;;;;5.70;4.03;;;;;;;20.69;100.00;100385.09;1749471;81;21551;-67
2022/07/29 02:31:01;;;;;;;5.08;3.40;;;;;;;20.70;100.00;100387.48;1720052;81;20978;-58
2022/07/29 02:33:28;;;;;;;8.83;4.07;;;;;;;20.84;100.00;100384.74;1748902;81;21005;-58
2022/07/29 02:35:55;;;;;;;6.73;3.80;;;;;;;21.09;100.00;100388.70;1749262;81;20921;-58
2022/07/29 02:41:12;;;;;;;6.07;3.53;;;;;;;21.41;100.00;100386.15;1749950;81;21053;-58
2022/07/29 02:43:41;;;;;;;;;;;;;;;21.44;100.00;100390.95;1747315;81;21438;-58
2022/07/29 02:46:12;;;;;;;6.53;3.80;;;;;;;21.47;100.00;100390.95;1749611;81;20091;-58
2022/07/29 02:48:51;;;;;;;5.78;4.00;;;;;;;21.61;100.00;100392.95;1748528;81;20986;-62
2022/07/29 02:51:22;;;;;;;7.03;3.73;;;;;;;21.78;100.00;100388.03;1748909;81;21527;-58
2022/07/29 02:53:53;;;;;;;9.67;3.80;;;;;;;21.74;100.00;100384.28;1749924;81;21014;-57
2022/07/29 02:56:27;;;;;;;7.17;4.37;;;;;;;21.77;100.00;100387.77;1749683;81;21195;-62
2022/07/29 02:58:57;;;;;;;6.57;4.77;;;;;;;21.82;100.00;100385.14;1719681;81;21458;-59
2022/07/29 03:01:28;;;;;;;6.20;4.05;;;;;;;21.87;100.00;100389.17;1750250;81;20949;-58
2022/07/29 03:03:55;;;;;;;6.70;4.57;;;;;;;21.91;100.00;100392.92;1749579;81;21033;-59
2022/07/29 03:06:24;;;;;;;8.33;4.77;;;;;;;22.02;100.00;100398.57;1741525;82;21046;-63
2022/07/29 03:08:52;;;;;;;8.27;4.13;;;;;;;22.16;100.00;100394.98;1743448;82;21940;-59
2022/07/29 03:11:19;;;;;;;8.60;4.43;;;;;;;22.58;100.00;100402.11;1742964;82;20946;-60
2022/07/29 03:13:47;;;;;;;8.50;4.00;;;;;;;23.54;100.00;100397.58;1743387;82;21045;-58
2022/07/29 03:16:14;;;;;;;6.10;4.00;;;;;;;24.59;100.00;100390.02;1742104;82;20879;-59
2022/07/29 03:18:42;;;;;;;8.30;4.30;;;;;;;25.53;100.00;100394.00;1742460;82;21088;-61
2022/07/29 03:21:11;;;;;;;6.07;4.43;;;;;;;26.50;100.00;100393.91;1742967;82;21553;-58
2022/07/29 03:23:45;;;;;;;5.90;3.75;;;;;;;27.47;100.00;100395.28;1742964;82;21009;-58
2022/07/29 03:26:12;;;;;;;5.50;3.90;;;;;;;28.19;100.00;100400.21;1743209;82;21512;-67
2022/07/29 03:28:39;;;;;;;5.15;3.17;;;;;;;28.90;100.00;100387.78;1742504;82;20979;-58
2022/07/29 03:31:08;;;;;;;3.85;2.95;;;;;;;29.39;100.00;100388.28;1743445;82;21040;-59
2022/07/29 03:33:36;;;;;;;5.47;3.67;;;;;;;30.04;100.00;100385.05;1743217;82;21264;-61
2022/07/29 03:36:03;;;;;;;6.22;4.00;;;;;;;30.75;100.00;100390.33;1743310;82;21025;-59
2022/07/29 03:38:33;;;;;;;3.33;2.63;;;;;;;31.23;98.43;100388.61;1741997;82;21383;-67
2022/07/29 03:41:05;;;;;;;4.08;2.37;;;;;;;31.97;84.65;100395.59;1743227;82;21923;-56
2022/07/29 03:43:37;;;;;;;3.30;2.35;;;;;;;32.63;75.12;100397.28;1743039;82;21044;-60
2022/07/29 03:46:05;;;;;;;;;;;;;;;32.91;71.34;100396.19;1744919;82;21123;-67
2022/07/29 03:48:33;;;;;;;4.35;2.15;;;;;;;33.54;65.06;100397.50;1741483;82;20357;-59
2022/07/29 03:51:01;;;;;;;3.83;2.37;;;;;;;33.83;60.07;100395.73;1741822;82;21025;-58
2022/07/29 03:53:28;;;;;;;4.37;2.08;;;;;;;34.25;57.56;100401.00;1742358;82;20967;-59
2022/07/29 03:55:59;;;;;;;3.83;2.10;;;;;;;34.68;54.51;100401.74;1741451;82;20963;-59
2022/07/29 03:58:27;;;;;;;4.33;2.10;;;;;;;34.87;52.03;100399.77;1742665;82;21410;-58
2022/07/29 04:00:55;;;;;;;5.28;2.55;;;;;;;35.21;51.07;100399.78;1741509;82;21421;-58
2022/07/29 04:03:22;;;;;;;5.10;2.17;;;;;;;35.74;47.68;100402.34;1742307;82;20999;-59
2022/07/29 04:06:05;;;;;;;6.67;2.72;;;;;;;36.13;45.98;100405.23;1752527;81;21551;-64
2022/07/29 04:08:33;;;;;;;7.78;3.47;;;;;;;36.54;44.93;100400.58;1757614;81;20974;-58
2022/07/29 04:11:01;;;;;;;4.28;2.70;;;;;;;36.80;43.31;100401.89;1757700;81;21346;-59
2022/07/29 04:13:30;;;;;;;6.00;3.70;;;;;;;36.93;42.18;100401.95;1757879;81;21008;-59
2022/07/29 04:15:57;;;;;;;4.85;3.77;;;;;;;36.97;41.56;100404.20;1757708;81;21503;-57
2022/07/29 04:18:25;;;;;;;5.00;3.17;;;;;;;37.18;40.62;100407.13;1757854;81;21337;-59
2022/07/29 04:20:53;;;;;;;7.60;3.60;;;;;;;36.95;40.71;100406.50;1758661;81;22024;-57
2022/07/29 04:23:20;;;;;;;6.05;3.00;;;;;;;37.07;40.35;100405.56;1757987;81;21249;-59
2022/07/29 04:25:47;;;;;;;6.92;3.27;;;;;;;37.38;39.99;100403.22;1757756;81;21531;-58
2022/07/29 04:28:15;;;;;;;5.40;2.52;;;;;;;37.65;38.23;100404.69;1757783;81;21037;-59
2022/07/29 04:30:44;;;;;;;3.03;2.50;;;;;;;37.69;38.48;100404.95;1757530;81;20915;-60
2022/07/29 04:33:13;;;;;;;3.08;2.15;;;;;;;38.01;37.26;100410.17;1757975;81;21120;-57
2022/07/29 04:35:40;;;;;;;2.65;2.30;;;;;;;38.08;37.15;100410.28;1758030;81;21237;-57
2022/07/29 04:38:07;;;;;;;4.15;2.30;;;;;;;38.34;36.70;100410.89;1757303;81;20993;-58
2022/07/29 04:40:35;;;;;;;2.77;2.10;;;;;;;38.72;35.73;100410.41;1756984;81;21060;-58
2022/07/29 04:43:02;;;;;;;2.30;1.95;;;;;;;38.98;34.93;100406.05;1757731;81;21013;-58
2022/07/29 04:45:29;;;;;;;2.70;2.25;;;;;;;39.30;34.01;100403.72;1757742;81;21068;-58
2022/07/29 04:47:57;;;;;;;3.67;2.67;;;;;;;39.36;33.54;100398.11;1757684;81;21758;-57
2022/07/29 04:50:24;;;;;;;2.67;2.35;;;;;;;39.14;33.82;100397.88;1757597;81;21507;-57
2022/07/29 04:52:51;;;;;;;5.87;2.70;;;;;;;39.36;33.72;100396.19;1757358;81;21538;-59
2022/07/29 04:55:20;;;;;;;4.20;2.65;;;;;;;39.60;33.24;100394.83;1758416;81;21072;-57
2022/07/29 04:57:48;;;;;;;4.20;2.60;;;;;;;39.71;33.07;100399.05;1758879;81;20831;-58
2022/07/29 05:00:22;;;;;;;3.87;2.30;;;;;;;39.29;33.03;100398.84;1741321;79;21388;-60
2022/07/29 05:02:50;;;;;;;2.90;2.40;;;;;;;38.87;33.58;100401.29;1720236;83;20997;-57
2022/07/29 05:05:18;;;;;;;3.57;2.43;;;;;;;38.68;33.66;100400.02;1725611;82;21020;-57
2022/07/29 05:07:46;;;;;;;2.87;2.58;;;;;;;38.65;33.78;100404.88;1725391;83;21049;-58
2022/07/29 05:10:15;;;;;;;5.20;2.65;;;;;;;38.88;33.93;100397.98;1724577;83;20871;-58
2022/07/29 05:12:42;;;;;;;4.20;2.75;;;;;;;39.04;33.52;100399.13;1725274;83;22097;-65
2022/07/29 05:15:10;;;;;;;3.12;2.35;;;;;;;39.24;33.35;100405.20;1725358;83;21876;-58
2022/07/29 05:17:39;;;;;;;2.58;2.25;;;;;;;39.22;32.90;100404.77;1725802;83;20918;-58
2022/07/29 05:20:09;;;;;;;4.45;2.90;;;;;;;39.02;33.56;100406.87;1725142;83;21077;-59
2022/07/29 05:22:37;;;;;;;3.72;2.62;;;;;;;39.23;33.08;100403.02;1725808;83;21582;-57
2022/07/29 05:25:06;;;;;;;2.98;2.37;;;;;;;39.27;33.42;100403.09;1724609;83;21171;-60
2022/07/29 05:27:33;;;;;;;2.90;2.60;;;;;;;39.49;33.03;100398.62;1725627;83;21070;-57
2022/07/29 05:30:03;;;;;;;2.73;2.30;;;;;;;39.82;32.17;100401.87;1725383;83;21547;-58
2022/07/29 05:32:31;;;;;;;3.42;2.47;;;;;;;39.38;32.33;100393.07;1725787;83;21686;-58
2022/07/29 05:35:00;;;;;;;2.80;2.50;;;;;;;38.82;33.14;100394.78;1725203;83;20977;-58
2022/07/29 05:37:28;;;;;;;2.75;2.50;;;;;;;38.48;34.34;100398.03;1725288;83;21246;-57
2022/07/29 05:39:55;;;;;;;4.87;2.77;;;;;;;38.33;34.49;100392.93;1725216;83;21028;-58
2022/07/29 05:42:25;;;;;;;2.62;2.37;;;;;;;38.40;34.43;100397.73;1725660;83;20942;-59
2022/07/29 05:44:54;;;;;;;4.03;2.67;;;;;;;38.43;34.18;100390.97;1725057;83;21012;-65
2022/07/29 05:47:21;;;;;;;5.28;2.40;;;;;;;38.19;34.38;100388.09;1725291;83;21044;-58
2022/07/29 05:49:48;;;;;;;3.12;2.70;;;;;;;38.26;34.84;100394.77;1724513;83;21777;-58
2022/07/29 05:52:16;;;;;;;5.37;2.50;;;;;;;38.42;34.55;100389.98;1725951;83;20914;-59
2022/07/29 05:54:44;;;;;;;3.17;2.83;;;;;;;38.22;34.91;100388.69;1725518;83;20994;-66
2022/07/29 05:57:19;;;;;;;5.40;2.40;;;;;;;38.10;35.71;100387.55;1725178;83;21092;-57
2022/07/29 05:59:46;;;;;;;3.33;2.65;;;;;;;38.19;35.20;100384.59;1725173;83;20926;-59
2022/07/29 06:02:14;;;;;;;3.42;2.52;;;;;;;38.29;35.44;100382.56;1725037;83;21164;-58
2022/07/29 06:04:42;;;;;;;2.85;2.42;;;;;;;38.58;35.24;100384.35;1725756;83;21531;-62
2022/07/29 06:07:11;;;;;;;4.12;2.40;;;;;;;38.97;34.72;100382.69;1698072;83;21047;-58
2022/07/29 06:09:40;;;;;;;3.00;2.40;;;;;;;39.25;34.46;100379.48;1724494;83;21007;-58
2022/07/29 06:12:07;;;;;;;3.40;2.25;;;;;;;39.63;34.25;100376.94;1725796;83;21215;-59
2022/07/29 06:14:35;;;;;;;3.47;2.80;;;;;;;40.12;32.91;100381.21;1725624;83;21165;-61
2022/07/29 06:17:02;;;;;;;3.70;3.25;;;;;;;40.43;32.02;100379.84;1724810;83;20962;-58
2022/07/29 06:19:31;;;;;;;3.30;2.35;;;;;;;40.46;31.91;100385.91;1724776;83;20997;-59
2022/07/29 06:21:58;;;;;;;4.05;3.00;;;;;;;40.47;32.18;100381.22;1725417;83;21641;-58
2022/07/29 06:24:25;;;;;;;3.47;2.30;;;;;;;40.79;31.17;100390.34;1725959;83;21018;-58
2022/07/29 06:26:54;;;;;;;3.87;3.35;;;;;;;40.69;31.61;100389.74;1725174;83;21306;-59
2022/07/29 06:29:21;;;;;;;3.58;2.83;;;;;;;40.80;31.43;100390.56;1725351;83;21480;-66
2022/07/29 06:31:50;;;;;;;6.62;3.25;;;;;;;40.74;31.43;100388.58;1725636;83;21044;-59
2022/07/29 06:34:18;;;;;;;3.92;3.27;;;;;;;40.52;31.98;100387.67;1725557;83;21092;-57
2022/07/29 06:36:46;;;;;;;3.10;2.50;;;;;;;40.69;31.59;100385.64;1724661;83;20957;-67
2022/07/29 06:39:14;;;;;;;3.80;2.85;;;;;;;40.81;31.53;100383.14;1725004;83;21390;-63
2022/07/29 06:41:50;;;;;;;6.17;2.60;;;;;;;40.86;31.32;100385.48;1725662;83;21002;-58
2022/07/29 06:44:19;;;;;;;4.67;3.15;;;;;;;41.19;30.88;100381.69;1700763;83;21028;-58
2022/07/29 06:46:49;;;;;;;4.00;2.93;;;;;;;41.58;30.36;100380.95;1725560;83;20883;-59
2022/07/29 06:49:17;;;;;;;2.93;2.60;;;;;;;42.02;29.71;100369.59;1725249;83;21438;-59
2022/07/29 06:51:46;;;;;;;3.13;2.83;;;;;;;42.26;29.29;100365.25;1725051;83;22985;-59
2022/07/29 06:54:14;;;;;;;4.75;2.67;;;;;;;42.24;28.47;100366.25;1725699;83;21660;-58
2022/07/29 06:56:42;;;;;;;4.67;2.95;;;;;;;42.22;29.39;100368.56;1725801;83;21012;-64
2022/07/29 06:59:10;;;;;;;3.30;2.98;;;;;;;42.48;28.91;100368.69;1725227;83;21546;-59
2022/07/29 07:01:41;;;;;;;3.60;2.85;;;;;;;42.47;28.27;100366.33;1726366;83;21028;-58
2022/07/29 07:04:08;;;;;;;3.75;2.98;;;;;;;42.34;27.88;100369.33;1725970;83;21238;-57
2022/07/29 07:06:35;;;;;;;2.70;2.50;;;;;;;42.36;27.60;100360.14;1725378;83;21008;-60
2022/07/29 07:09:03;;;;;;;3.83;2.90;;;;;;;42.27;27.48;100366.80;1725086;83;21374;-59
2022/07/29 07:11:31;;;;;;;3.92;2.45;;;;;;;41.92;27.68;100360.81;1725415;83;21036;-58
2022/07/29 07:13:59;;;;;;;7.80;2.47;;;;;;;41.81;27.74;100362.75;1726242;83;20989;-57
2022/07/29 07:16:27;;;;;;;4.05;2.80;;;;;;;41.56;28.42;100368.23;1725670;83;21308;-65
2022/07/29 07:18:54;;;;;;;3.47;2.55;;;;;;;41.38;28.50;100368.81;1725014;83;21015;-59
2022/07/29 07:21:22;;;;;;;3.55;2.47;;;;;;;41.19;28.39;100360.41;1725570;83;20992;-57
2022/07/29 07:23:50;;;;;;;2.52;2.10;;;;;;;41.26;28.65;100363.15;1725694;83;21061;-57
2022/07/29 07:26:17;;;;;;;3.58;2.02;;;;;;;41.56;27.81;100360.84;1725349;83;21499;-57
2022/07/29 07:28:46;;;;;;;3.08;2.62;;;;;;;41.65;27.50;100357.70;1725086;83;21181;-58
2022/07/29 07:31:14;;;;;;;3.50;2.50;;;;;;;41.88;27.74;100361.41;1724449;83;21093;-58
2022/07/29 07:33:42;;;;;;;4.08;2.83;;;;;;;42.12;27.30;100366.63;1725568;83;21032;-58
2022/07/29 07:36:09;;;;;;;3.35;2.05;;;;;;;42.16;27.33;100359.17;1725676;83;20890;-58
2022/07/29 07:38:37;;;;;;;2.47;1.92;;;;;;;42.43;27.51;100359.52;1725596;83;21049;-58
2022/07/29 07:41:04;;;;;;;3.83;2.62;;;;;;;42.66;27.22;100360.42;1725439;83;21274;-59
2022/07/29 07:43:31;;;;;;;2.75;2.17;;;;;;;42.92;26.69;100365.16;1725696;83;21949;-58
2022/07/29 07:45:59;;;;;;;3.77;2.40;;;;;;;43.05;26.50;100362.14;1725623;83;21255;-58
2022/07/29 07:48:26;;;;;;;2.77;2.42;;;;;;;42.93;26.55;100366.73;1725706;83;21095;-58
2022/07/29 07:50:54;;;;;;;2.30;2.10;;;;;;;42.59;26.75;100367.28;1726276;83;21092;-62
2022/07/29 07:53:21;;;;;;;3.02;2.17;;;;;;;42.23;26.88;100361.12;1725470;83;21800;-57
2022/07/29 07:55:48;;;;;;;2.83;2.50;;;;;;;42.18;27.55;100362.31;1725721;83;21849;-57
2022/07/29 07:58:16;;;;;;;2.35;2.15;;;;;;;41.93;27.10;100360.22;1725681;83;20889;-58
2022/07/29 08:00:44;;;;;;;2.77;2.40;;;;;;;41.63;28.28;100360.03;1725628;81;20961;-65
2022/07/29 08:03:13;;;;;;;3.37;2.87;;;;;;;41.79;28.35;100358.27;1725444;83;20942;-58
2022/07/29 08:05:42;;;;;;;3.10;2.22;;;;;;;41.96;28.30;100358.06;1726010;83;24923;-59
2022/07/29 08:08:10;;;;;;;3.10;2.20;;;;;;;42.07;28.04;100361.56;1725419;83;20874;-57
2022/07/29 08:10:58;;;;;;;;;;;;;;;42.10;27.84;100359.41;1728681;83;21063;-58
2022/07/29 08:13:27;;;;;;;2.98;2.30;;;;;;;42.23;27.38;100357.78;1725187;83;20504;-58
2022/07/29 08:16:00;;;;;;;2.75;1.90;;;;;;;42.39;27.68;100362.06;1725852;83;21034;-57
2022/07/29 08:18:30;;;;;;;3.70;2.50;;;;;;;42.51;27.33;100357.53;1726017;83;21171;-65
2022/07/29 08:20:57;;;;;;;3.58;2.10;;;;;;;42.68;27.22;100354.53;1725100;83;21119;-57
2022/07/29 08:23:26;;;;;;;2.80;2.50;;;;;;;42.81;27.26;100358.95;1726408;83;20982;-57
2022/07/29 08:25:54;;;;;;;2.80;2.17;;;;;;;42.89;27.50;100361.87;1726373;83;20996;-58
2022/07/29 08:28:21;;;;;;;2.83;2.12;;;;;;;42.87;26.96;100358.73;1726980;83;21123;-58
2022/07/29 08:30:50;;;;;;;3.40;2.53;;;;;;;42.93;26.80;100356.55;1724774;83;21282;-61
2022/07/29 08:33:17;;;;;;;2.85;2.30;;;;;;;42.92;26.66;100355.55;1726308;83;21414;-58
2022/07/29 08:35:45;;;;;;;3.02;2.40;;;;;;;42.76;26.89;100356.05;1725861;83;20918;-58
2022/07/29 08:38:12;;;;;;;4.28;2.40;;;;;;;42.80;26.93;100356.80;1725816;83;21479;-57
2022/07/29 08:40:40;;;;;;;8.23;2.67;;;;;;;42.83;26.77;100357.97;1725062;83;21021;-62
2022/07/29 08:43:07;;;;;;;3.92;2.35;;;;;;;42.89;26.84;100352.27;1725588;83;21298;-57
2022/07/29 08:45:44;;;;;;;3.10;2.20;;;;;;;42.98;26.93;100357.48;1725855;83;21100;-58
2022/07/29 08:48:17;;;;;;;4.95;2.25;;;;;;;42.95;26.59;100350.05;1726198;83;21059;-66
2022/07/29 08:50:45;;;;;;;3.45;2.10;;;;;;;43.00;26.73;100347.47;1725488;83;20952;-58
2022/07/29 08:53:15;;;;;;;5.35;2.40;;;;;;;42.91;26.68;100352.63;1726352;83;21017;-58
2022/07/29 08:55:45;;;;;;;4.00;2.20;;;;;;;42.88;26.51;100358.32;1726373;83;21527;-59
2022/07/29 08:58:13;;;;;;;4.10;2.17;;;;;;;42.75;26.53;100347.05;1726056;83;20882;-66
2022/07/29 09:00:50;;;;;;;5.50;2.92;;;;;;;42.48;26.73;100352.84;1720449;83;21203;-59
2022/07/29 09:03:23;;;;;;;3.62;2.33;;;;;;;42.33;27.19;100348.60;1715232;83;21680;-59
2022/07/29 09:05:50;;;;;;;3.10;2.30;;;;;;;42.21;27.40;100338.24;1714604;83;21021;-59
2022/07/29 09:08:20;;;;;;;4.30;2.87;;;;;;;42.40;27.08;100343.09;1714413;83;21492;-59
2022/07/29 09:10:47;;;;;;;3.55;2.40;;;;;;;42.51;26.69;100340.50;1715263;83;21427;-58
2022/07/29 09:13:16;;;;;;;2.52;2.00;;;;;;;42.35;26.98;100344.86;1714834;83;20867;-58
2022/07/29 09:15:48;;;;;;;3.35;2.27;;;;;;;42.26;26.79;100341.19;1715027;83;21235;-66
2022/07/29 09:18:37;;;;;;;2.98;2.37;;;;;;;42.09;27.30;100342.79;1713550;83;20978;-62
2022/07/29 09:24:07;;;;;;;3.85;2.50;;;;;;;42.03;27.18;100340.25;1714071;83;21358;-58
2022/07/29 09:26:38;;;;;;;4.05;2.80;;;;;;;42.12;27.33;100337.09;1714695;83;21048;-57
2022/07/29 09:29:12;;;;;;;7.45;2.72;;;;;;;42.11;26.83;100342.38;1713540;83;21013;-61
2022/07/29 09:31:43;;;;;;;3.30;2.20;;;;;;;42.09;27.23;100338.68;1714112;83;21105;-59
2022/07/29 09:34:11;;;;;;;3.98;2.87;;;;;;;41.99;27.29;100347.11;1713997;83;22307;-58
2022/07/29 09:36:48;;;;;;;4.25;2.30;;;;;;;42.08;27.09;100337.09;1713973;83;20919;-57
2022/07/29 09:39:18;;;;;;;3.45;2.33;;;;;;;42.31;26.88;100330.40;1713869;83;21104;-66
2022/07/29 09:41:52;;;;;;;4.28;2.22;;;;;;;42.51;26.73;100339.13;1712293;83;20931;-58
2022/07/29 09:44:19;;;;;;;4.33;2.40;;;;;;;42.65;26.22;100332.77;1714458;83;21033;-57
2022/07/29 09:47:07;;;;;;;2.90;2.40;;;;;;;42.89;26.16;100324.25;1713816;83;21172;-64
2022/07/29 09:49:35;;;;;;;4.35;2.30;;;;;;;42.85;26.10;100323.50;1714321;83;21419;-57
2022/07/29 09:52:07;;;;;;;2.90;2.08;;;;;;;42.58;26.11;100328.70;1691726;83;20974;-57
2022/07/29 09:54:39;;;;;;;3.00;2.15;;;;;;;42.52;26.41;100327.57;1713736;83;21048;-58
2022/07/29 09:57:12;;;;;;;4.75;2.52;;;;;;;42.52;26.32;100326.20;1713575;83;21579;-59
2022/07/29 09:59:37;;;;;;;3.67;2.40;;;;;;;42.51;26.46;100328.75;1713672;83;21148;-58
2022/07/29 10:02:14;;;;;;;5.12;2.33;;;;;;;42.37;26.35;100320.00;1724687;83;20984;-58
2022/07/29 10:04:42;;;;;;;4.58;2.22;;;;;;;42.15;26.70;100323.38;1724780;83;21136;-58
2022/07/29 10:07:10;;;;;;;2.60;1.82;;;;;;;41.98;26.28;100322.88;1724924;83;21437;-58
2022/07/29 10:09:38;;;;;;;4.58;2.35;;;;;;;41.74;26.68;100321.11;1725273;83;21537;-58
2022/07/29 10:12:17;;;;;;;5.00;2.40;;;;;;;41.58;26.66;100329.55;1725506;83;21938;-59
2022/07/29 10:14:42;;;;;;;2.50;2.12;;;;;;;41.37;26.62;100326.20;1723657;83;21524;-63
2022/07/29 10:17:13;;;;;;;3.80;2.20;;;;;;;41.37;26.66;100320.16;1724981;83;21562;-57
2022/07/29 10:19:41;;;;;;;4.17;2.20;;;;;;;41.43;26.92;100314.51;1724979;83;21511;-57
2022/07/29 10:22:10;;;;;;;3.02;2.30;;;;;;;41.47;26.27;100317.24;1724249;83;21440;-58
2022/07/29 10:24:39;;;;;;;4.50;1.92;;;;;;;41.43;26.02;100317.84;1725327;83;21814;-59
2022/07/29 10:27:07;;;;;;;3.15;2.15;;;;;;;41.31;26.98;100321.13;1724738;83;21025;-60
2022/07/29 10:29:36;;;;;;;3.22;1.80;;;;;;;40.85;26.70;100324.57;1725019;83;21024;-58
2022/07/29 10:32:56;;;;;;;3.37;2.47;;;;;;;40.38;27.52;100328.28;1724941;83;20933;-58
2022/07/29 10:35:58;;;;;;;2.92;1.87;;;;;;;40.26;27.59;100329.99;1723968;83;21040;-58
2022/07/29 10:38:47;;;;;;;4.25;2.30;;;;;;;40.11;28.08;100329.89;1715854;83;21036;-57
2022/07/29 10:41:46;;;;;;;4.70;2.65;;;;;;;40.00;27.84;100336.45;1725579;83;21613;-57
2022/07/29 10:44:17;;;;;;;5.65;2.55;;;;;;;39.93;28.02;100329.59;1672546;83;20993;-66
2022/07/29 10:46:44;;;;;;;3.15;2.40;;;;;;;40.01;27.72;100328.48;1725183;83;21052;-58
2022/07/29 10:49:29;;;;;;;3.08;2.60;;;;;;;39.87;27.55;100326.45;1724351;83;21209;-62
2022/07/29 10:52:07;;;;;;;3.35;2.98;;;;;;;39.92;27.77;100329.39;1699019;83;21276;-58
2022/07/29 10:54:47;;;;;;;3.30;2.72;;;;;;;40.09;27.61;100330.09;1725218;83;21072;-65
2022/07/29 10:57:28;;;;;;;3.33;2.58;;;;;;;40.31;27.09;100330.42;1724882;83;20949;-57
2022/07/29 11:00:10;;;;;;;3.02;2.40;;;;;;;40.38;26.74;100326.92;1725030;83;20973;-57
2022/07/29 11:02:42;;;;;;;4.70;2.65;;;;;;;40.09;27.31;100325.99;1724918;83;22153;-57
2022/07/29 11:05:16;;;;;;;3.87;2.20;;;;;;;39.91;27.16;100323.16;1725281;83;21180;-57
2022/07/29 11:08:19;;;;;;;4.45;2.90;;;;;;;39.98;27.42;100322.42;1725460;83;21049;-57
2022/07/29 11:10:48;;;;;;;5.65;2.30;;;;;;;40.08;27.19;100320.31;1725085;83;21006;-64
2022/07/29 11:13:48;;;;;;;4.70;3.05;;;;;;;40.05;26.80;100325.19;1724982;83;21116;-57
2022/07/29 11:16:16;;;;;;;4.00;2.80;;;;;;;39.82;27.15;100322.72;1724731;83;26786;-60
2022/07/29 11:19:18;;;;;;;3.47;2.17;;;;;;;39.83;27.23;100316.87;1725309;83;21211;-58
2022/07/29 11:21:49;;;;;;;3.15;2.30;;;;;;;39.76;26.89;100322.86;1724413;83;20878;-61
2022/07/29 11:24:21;;;;;;;6.80;2.37;;;;;;;39.45;27.28;100317.35;1725090;83;21406;-57
2022/07/29 11:27:08;;;;;;;;;;;;;;;39.34;27.43;100313.95;1727868;83;21017;-65
2022/07/29 11:29:40;;;;;;;4.08;2.27;;;;;;;39.47;27.43;100314.42;1725129;83;20225;-65
2022/07/29 11:32:15;;;;;;;5.92;2.12;;;;;;;39.69;26.63;100315.41;1718414;82;21093;-57
2022/07/29 11:34:43;;;;;;;4.20;1.60;;;;;;;39.55;26.12;100321.53;1724819;83;21026;-57
2022/07/29 11:37:15;;;;;;;3.10;1.95;;;;;;;39.31;26.69;100325.60;1725284;83;21633;-59
2022/07/29 11:39:58;;;;;;;2.80;1.92;;;;;;;39.06;26.26;100323.19;1725451;83;20934;-58
2022/07/29 11:42:34;;;;;;;3.92;2.30;;;;;;;38.56;27.71;100319.91;1725538;83;21096;-57
2022/07/29 11:45:18;;;;;;;3.87;2.20;;;;;;;38.33;28.57;100317.27;1725003;83;21550;-58
2022/07/29 11:47:51;;;;;;;4.00;2.17;;;;;;;38.19;28.24;100314.58;1724613;83;21053;-60